Racecast

Kayloni Nunez

Temperance Bedford (MI) · 10 · SECMI D1MONROE · Compare head to head

Athlete rating 119.7 2025 XC season
Best race 120.8 XC
Races 70
Seasons 5 2022 — 2026

RankedNation #20335·MI #2082·MI D1 #1208·SEC #122·Team #25 ?

Rating scale ?

Cross Country

2025 XC 106.0

Temperance Bedford (MI) · Grade 10

Date Meet Event Result Place Rating Difficulty PR/SR Flags
2025-10-25 Lake Erie Metro Park OFFICIAL 5000m 22:16.4 52nd · 6th on team 120.8 +0.055 ★PR ★CR ★R SR CSR RSR
2025-10-16 Hudson Mills Metropark - OFFICIAL 5000m 23:14.6 42nd · 7th on team 114.8 +0.036 ★CR CSR
2025-10-11 Munson Park 5000m 22:53.9 12th · 2nd on team 118.4 +0.054 PR ★CR R SR CSR RSR
2025-09-27 Lake Erie Metro Park OFFICIAL 5000m 23:38.6 2nd · 2nd on team 115.8 +0.055 PR CR R SR CSR RSR
2025-09-25 Indian Creek OFFICIAL 5000m 24:15.7 39th · 1st on team 109.7 +0.039 PR ★CR SR CSR RSR
2025-09-19 Ella Sharp Park OFFICIAL 5000m 26:53.2 93rd · 2nd on team 99.6 +0.038 ★CR CSR
2025-09-09 Willow Metropark OFFICIAL 5000m 25:26.6 96th · 10th on team 106.5 +0.048 PR ★CR SR CSR RSR
2025-08-30 BGSU 5000m 26:34.9 83rd · 1st on team 92.8 -0.038 ★CR SR CSR RSR
2025-08-30 Bowling Green 5000m 26:34.9 83rd · 1st on team 92.2 -0.046 ★CR CSR
2025-08-22 Saline High School 5000m 29:50.9 56th · 9th on team 89.7 +0.039 ★CR SR CSR RSR

2024 XC 97.4

Temperance Bedford (MI) · Grade 9

Date Meet Event Result Place Rating Difficulty PR/SR Flags
2024-10-26 Lake Erie Metro Park OFFICIAL 5000m 26:06.9 78th · 9th on team 104.4 +0.055 PR CR SR CSR RSR
2024-10-17 Hudson Mills Metropark - OFFICIAL 5000m 27:04.74 98th · 8th on team 99.2 +0.036 PR CR SR CSR RSR
2024-10-12 Munson Park 5000m 27:48.4 38th · 6th on team 98.2 +0.054 CR CSR RSR
2024-10-05 Portage West MS 5000m 27:44 225th · 6th on team 97.0 +0.038 PR ★CR SR CSR
2024-09-28 Lake Erie Metro Park OFFICIAL 5000m 27:59.9 19th · 3rd on team 97.4 +0.055 PR CR SR CSR
2024-09-24 Pioneer HS 5000m 28:21.1 69th · 8th on team 97.6 +0.067 PR ★CR SR CSR RSR
2024-09-10 Willow Metropark OFFICIAL 5000m 29:13 77th · 7th on team 93.2 +0.048 PR CR SR CSR RSR
2024-08-23 Ford Field/EE Ice Arena(LIVONIA) OFFICIAL 5000m 30:02.9 71st · 6th on team 92.2 +0.070 PR ★CR SR CSR RSR

2023 XC 106.7

Temperance Bedford (MI) · Grade 8

Date Meet Event Result Place Rating Difficulty PR/SR Flags
2023-10-25 Milan HS OFFICIAL 3218m 17:00.3 13th · 2nd on team 114.0 +0.041 ★CR CSR
2023-10-18 Indian Creek OFFICIAL 3218m 16:32.2 15th · 3rd on team 115.6 +0.038 ★PR ★CR R SR CSR RSR
2023-10-14 Munson Park 3200m +0.034 ★CR SR CSR
2023-10-07 Monroe Township Stoneco Park 3218m 17:32.7 69th · 11th on team 106.5 +0.006 PR ★CR R SR CSR RSR
2023-10-04 Ella Sharp Park OFFICIAL 3218m 18:45.4 20th · 3rd on team 104.5 +0.055 ★CR CSR
2023-09-30 Lake Erie Metro Park OFFICIAL 3218m 18:18.1 154th · 12th on team 104.7 +0.034 PR ★CR R SR CSR RSR
2023-09-22 Ella Sharp Park OFFICIAL 3218m 18:53.3 149th · 15th on team 103.8 +0.055 PR CR R SR CSR RSR
2023-09-20 Heritage Park (Adrian) OFFICIAL 3218m 19:38.3 20th · 4th on team 97.6 +0.046 ★CR SR CSR RSR

2022 XC 90.8

Temperance Bedford (MI) · Grade 7

Date Meet Event Result Place Rating Difficulty PR/SR Flags
2022-10-22 Hudson HS 3218m 19:05.7 144th · 17th on team 100.2 +0.029 ★CR R CSR RSR
2022-10-19 Saline High School 3218m 21:34.5 67th · 8th on team 88.3 +0.016 ★CR CSR
2022-10-08 Monroe Township Stoneco Park 3218m 19:05.7 17th · 8th on team 97.8 +0.006 PR CR R SR CSR RSR
2022-10-05 Tecumseh HS 3218m 21:40.2 65th · 8th on team 89.0 +0.036 ★CR CSR
2022-09-23 Ella Sharp Park OFFICIAL 3218m 20:12.6 168th · 18th on team 97.6 +0.055 PR CR R SR CSR RSR
2022-09-21 Manly W. Bennett Park 3218m 22:51.4 55th · 8th on team 90.0 +0.100 PR ★CR R SR CSR RSR
2022-09-17 Ottawa Park Golf Course 3200m 21:58.6 130th · 14th on team 81.8 -0.037 ★CR R CSR RSR
2022-09-10 Hedges Boyer Park 3200m 20:44.1 163rd · 8th on team 81.7 -0.089 ★PR ★CR R SR CSR RSR

Track & Field

2026 TF 103.6

Temperance Bedford (MI) · Grade 10

Date Meet Event Result Place Rating Difficulty PR/SR Flags
2026-05-15 MHSAA LP Region 05-1 @ Saline 1600m 6:32.85 25th · 2nd on team 102.8 -0.042
2026-05-07 SEC-HS Red Championship (EQ Approved) 1600m 6:26.75 25th · 3rd on team 105.3 -0.034
2026-04-29 Knight Classic JV Invitational 1600m 6:23.35 3rd · 1st on team 105.5 -0.040 ★PR SR RSR
2026-04-28 SEC-HS: Bedford @ Monroe 1600m 6:29.36 3rd · 2nd on team 104.8 -0.032 RSR
2026-04-25 Railsplitter Invite (EQ approved) 1600m 6:37.98 14th · 3rd on team 102.5 -0.032
2026-04-20 SEC-HS: Bedford @ Pioneer 400m 1:12.58 8th · 4th on team -0.028 ★PR SR
2026-04-17 6th Toledo St. John's Jesuit Titan Invite 1600m 6:27.4 14th · 1st on team 104.2 -0.042 PR SR RSR
2026-04-14 SEC-HS: Huron & Saline at Bedford 800m 2:59.56 8th · 2nd on team 101.9 -0.033 ★PR SR
2026-04-07 SEC-HS: Bedford & Dexter @ Skyline 1600m 6:38.69 9th · 2nd on team 102.2 -0.033
2026-03-26 Lincoln Indoor Invite 1600m 6:34.83 27th · 1st on team 103.1 -0.035 PR SR RSR

2025 TF

Temperance Bedford (MI) · Grade 9

Date Meet Event Result Place Rating Difficulty PR/SR Flags
2025-05-22 Dundee Jim Beck Freshman Invite 100m 14.71 11th · 4th on team -0.026 ★PR SR
2025-05-14 25th River Rat Girls JV Invite 200m 32.72 58th · 6th on team -0.034
2025-04-29 SEC-HS: Lincoln @ Bedford 100m 15.2 5th · 3rd on team -0.033 PR SR
2025-04-29 SEC-HS: Lincoln @ Bedford 200m 32.48 9th · 6th on team -0.033 ★PR SR
2025-04-22 SEC-HS: Bedford & Pioneer @ Monroe 200m 33.52 10th · 6th on team -0.032 PR SR
2025-04-22 SEC-HS: Bedford & Pioneer @ Monroe 100m 15.61 12th · 2nd on team -0.032 PR SR
2025-04-15 SEC-HS: Bedford & Dexter @ Skyline 200m 33.87 24th · 8th on team -0.033 PR SR
2025-04-15 SEC-HS: Bedford & Dexter @ Skyline 100m 16.2 24th · 9th on team -0.033 PR SR
2025-04-07 SEC-HS: Huron & Saline @ Bedford 400m 1:23.02 19th · 2nd on team -0.033 PR SR
2025-04-07 SEC-HS: Huron & Saline @ Bedford 100m 16.62 35th · 10th on team -0.033 PR SR

2024 TF 95.2

Temperance Bedford (MI) · Grade 8

Date Meet Event Result Place Rating Difficulty PR/SR Flags
2024-05-10 SEC-MS: Monroe at Bedford shot 16' 7 -0.033
2024-05-10 SEC-MS: Monroe at Bedford 800m 3:30.18 6th · 5th on team 95.2 -0.033 PR SR RSR
2024-04-25 SEC MS: Saline @ Bedford shot 12' 3 -0.033
2024-04-25 SEC MS: Saline @ Bedford 200m 36.29 26th · 15th on team -0.033 PR SR

2023 TF

Temperance Bedford (MI) · Grade 7

Date Meet Event Result Place Rating Difficulty PR/SR Flags
2023-05-15 SEC-MS: Lincoln & Bedford @ Monroe lj 9' 4.5 -0.032
2023-05-15 SEC-MS: Lincoln & Bedford @ Monroe 100m 17.13 31st · 14th on team -0.032
2023-05-15 SEC-MS: Lincoln & Bedford @ Monroe 70m 12.09 33rd · 17th on team -0.032
2023-05-08 SEC-MS Chelsea & Ypsi @Bedford lj 9-6.5 -0.033
2023-05-08 SEC-MS Chelsea & Ypsi @Bedford 70m 12.24 36th · 21st on team -0.033
2023-05-08 SEC-MS Chelsea & Ypsi @Bedford 200m 38.74 29th · 16th on team -0.033
2023-05-04 SEC-MS Bedford at Saline lj 8' 9 -0.038
2023-05-04 SEC-MS Bedford at Saline 100m 17.22 52nd · 22nd on team -0.038
2023-05-04 SEC-MS Bedford at Saline 200m 38.69 39th · 23rd on team -0.038 PR SR
2023-04-27 SEC-MS: Bedford @ Pinckney lj 7' 10 -0.032
2023-04-27 SEC-MS: Bedford @ Pinckney 70m 12.04 22nd · 16th on team -0.032 ★PR SR
2023-04-27 SEC-MS: Bedford @ Pinckney 100m 16.84 29th · 21st on team -0.032 PR SR